Time;durP1;ratioP1;P1;durP2;ratioP2;P2;SDS_P1;SDS_P2;PMS_P1;PMS_P2;Temp;Humidity;BMP_temperature;BMP_pressure;BME280_temperature;BME280_humidity;BME280_pressure;Samples;Min_cycle;Max_cycle;Signal;HPM_P1;HPM_P2
2022/11/16 00:01:23;;;;;;;;;;;9.20;99.90;;;;;;4992776;28;20399;-79
2022/11/16 00:03:51;;;;;;;;;;;9.20;99.90;;;;;;4990483;28;20208;-78
2022/11/16 00:06:18;;;;;;;;;;;9.20;99.90;;;;;;4987739;28;19932;-78
2022/11/16 00:09:20;;;;;;;;;;;9.20;99.90;;;;;;4991968;28;20384;-79
2022/11/16 00:11:34;;;;;;;;;;;9.20;99.90;;;;;;4989664;28;19996;-78
2022/11/16 00:14:01;;;;;;;;;;;9.20;99.90;;;;;;4985015;28;20777;-79
2022/11/16 00:16:28;;;;;;;;;;;9.20;99.90;;;;;;4992195;28;20392;-78
2022/11/16 00:18:55;;;;;;;;;;;9.10;99.90;;;;;;4989607;28;20024;-79
2022/11/16 00:21:22;;;;;;;;;;;9.20;99.90;;;;;;4991044;28;19973;-80
2022/11/16 00:23:49;;;;;;;;;;;9.10;99.90;;;;;;4987894;28;19934;-79
2022/11/16 00:26:16;;;;;;;;;;;9.10;99.90;;;;;;4990264;28;19957;-79
2022/11/16 00:28:44;;;;;;;;;;;9.20;99.90;;;;;;4989366;28;19934;-79
2022/11/16 00:31:11;;;;;;;;;;;9.10;99.90;;;;;;4990939;28;19925;-78
2022/11/16 00:33:38;;;;;;;;;;;9.10;99.90;;;;;;5009899;28;20311;-79
2022/11/16 00:36:07;;;;;;;;;;;9.10;99.90;;;;;;4983785;28;19930;-80
2022/11/16 00:38:34;;;;;;;;;;;9.10;99.90;;;;;;4993173;28;19929;-78
2022/11/16 00:41:01;;;;;;;;;;;9.10;99.90;;;;;;4984367;28;20008;-78
2022/11/16 00:43:27;;;;;;;;;;;9.10;99.90;;;;;;4989201;28;19925;-78
2022/11/16 00:45:56;;;;;;;;;;;9.10;99.90;;;;;;4995523;28;20017;-78
2022/11/16 00:48:23;;;;;;;;;;;9.10;99.90;;;;;;4990427;28;20019;-78
2022/11/16 00:50:50;;;;;;;;;;;9.10;99.90;;;;;;4993373;28;19999;-79
2022/11/16 00:53:17;;;;;;;;;;;9.00;99.90;;;;;;4988675;28;19936;-79
2022/11/16 00:55:45;;;;;;;;;;;9.00;99.90;;;;;;4989268;28;19940;-79
2022/11/16 00:58:13;;;;;;;;;;;9.00;99.90;;;;;;4993469;28;19930;-79
2022/11/16 01:00:43;;;;;;;;;;;9.00;99.90;;;;;;4997510;28;20407;-78
2022/11/16 01:03:11;;;;;;;;;;;9.00;99.90;;;;;;4994989;28;20036;-78
2022/11/16 01:05:38;;;;;;;;;;;9.00;99.90;;;;;;4994995;28;19932;-78
2022/11/16 01:08:05;;;;;;;;;;;9.00;99.90;;;;;;4998949;28;19948;-78
2022/11/16 01:10:32;;;;;;;;;;;9.00;99.90;;;;;;4995156;28;20138;-79
2022/11/16 01:12:58;;;;;;;;;;;9.00;99.90;;;;;;4999248;28;20407;-78
2022/11/16 01:15:26;;;;;;;;;;;9.00;99.90;;;;;;4999535;28;19968;-79
2022/11/16 01:17:53;;;;;;;;;;;9.10;99.90;;;;;;4997201;28;20008;-78
2022/11/16 01:20:24;;;;;;;;;;;9.00;99.90;;;;;;4998190;28;19925;-79
2022/11/16 01:22:51;;;;;;;;;;;9.00;99.90;;;;;;4991963;28;19934;-79
2022/11/16 01:25:18;;;;;;;;;;;9.00;99.90;;;;;;4996938;28;20004;-78
2022/11/16 01:27:45;;;;;;;;;;;9.00;99.90;;;;;;4990518;28;21664;-78
2022/11/16 01:30:19;;;;;;;;;;;9.00;99.90;;;;;;4992727;28;20349;-78
2022/11/16 01:32:57;;;;;;;;;;;9.00;99.90;;;;;;4996796;28;20142;-79
2022/11/16 01:35:25;;;;;;;;;;;9.00;99.90;;;;;;4995468;28;21007;-80
2022/11/16 01:37:52;;;;;;;;;;;9.00;99.90;;;;;;4996767;28;19926;-79
2022/11/16 01:40:19;;;;;;;;;;;9.00;99.90;;;;;;4998100;28;19929;-77
2022/11/16 01:42:46;;;;;;;;;;;9.00;99.90;;;;;;4996784;28;19940;-81
2022/11/16 01:45:19;;;;;;;;;;;9.00;99.90;;;;;;4995452;28;19926;-78
2022/11/16 01:47:46;;;;;;;;;;;9.00;99.90;;;;;;4989284;28;19930;-78
2022/11/16 01:50:17;;;;;;;;;;;9.00;99.90;;;;;;4994010;28;19933;-79
2022/11/16 01:52:51;;;;;;;;;;;9.00;99.90;;;;;;4992972;28;19933;-80
2022/11/16 01:55:20;;;;;;;;;;;9.00;99.90;;;;;;4994925;28;20369;-78
2022/11/16 01:58:15;;;;;;;;;;;9.00;99.90;;;;;;4990293;28;20066;-79
2022/11/16 02:00:42;;;;;;;;;;;8.90;99.90;;;;;;4989863;28;19926;-78
2022/11/16 02:03:27;;;;;;;;;;;8.90;99.90;;;;;;5009565;28;19980;-77
2022/11/16 02:06:02;;;;;;;;;;;8.90;99.90;;;;;;5000031;28;19926;-77
2022/11/16 02:11:33;;;;;;;;;;;8.90;99.90;;;;;;4990429;28;19948;-77
2022/11/16 02:14:04;;;;;;;;;;;8.90;99.90;;;;;;5003458;28;19936;-78
2022/11/16 02:16:36;;;;;;;;;;;8.90;99.90;;;;;;4989998;28;19925;-78
2022/11/16 02:19:14;;;;;;;;;;;8.90;99.90;;;;;;5006474;28;19935;-79
2022/11/16 02:21:43;;;;;;;;;;;8.90;99.90;;;;;;4994336;28;19945;-79
2022/11/16 02:24:27;;;;;;;;;;;8.90;99.90;;;;;;4987723;28;20403;-77
2022/11/16 02:27:15;;;;;;;;;;;8.90;99.90;;;;;;4993436;28;20380;-77
2022/11/16 02:29:45;;;;;;;;;;;8.90;99.90;;;;;;4985594;28;19933;-77
2022/11/16 02:32:14;;;;;;;;;;;8.90;99.90;;;;;;4988378;28;19933;-78
2022/11/16 02:34:42;;;;;;;;;;;8.90;99.90;;;;;;4988231;28;20359;-77
2022/11/16 02:37:10;;;;;;;;;;;8.90;99.90;;;;;;4988993;28;19952;-78
2022/11/16 02:39:38;;;;;;;;;;;9.00;99.90;;;;;;4990227;28;19929;-77
2022/11/16 02:42:08;;;;;;;;;;;8.80;99.90;;;;;;4991562;22;21912;-75
2022/11/16 02:44:36;;;;;;;;;;;8.80;99.90;;;;;;5009421;28;19933;-77
2022/11/16 02:47:07;;;;;;;;;;;8.80;99.90;;;;;;5007043;28;20036;-75
2022/11/16 02:49:37;;;;;;;;;;;8.90;99.90;;;;;;4989257;28;20483;-76
2022/11/16 02:52:04;;;;;;;;;;;8.80;99.90;;;;;;4987708;28;20012;-77
2022/11/16 02:54:31;;;;;;;;;;;8.80;99.90;;;;;;4993972;28;20376;-76
2022/11/16 02:57:16;;;;;;;;;;;8.80;99.90;;;;;;4991721;28;20020;-78
2022/11/16 02:59:48;;;;;;;;;;;8.80;99.90;;;;;;4994028;28;19933;-74
2022/11/16 03:02:22;;;;;;;;;;;8.90;99.90;;;;;;4990447;28;20401;-74
2022/11/16 03:04:50;;;;;;;;;;;8.80;99.90;;;;;;4991725;28;19937;-75
2022/11/16 03:07:20;;;;;;;;;;;8.90;99.90;;;;;;4993595;28;20395;-74
2022/11/16 03:09:49;;;;;;;;;;;8.90;99.90;;;;;;4990811;28;19937;-77
2022/11/16 03:12:17;;;;;;;;;;;8.80;99.90;;;;;;4991292;28;20439;-76
2022/11/16 03:14:47;;;;;;;;;;;8.80;99.90;;;;;;4987994;28;20303;-75
2022/11/16 03:17:17;;;;;;;;;;;8.80;99.90;;;;;;5003219;28;20461;-77
2022/11/16 03:19:50;;;;;;;;;;;8.80;99.90;;;;;;4991325;28;19932;-76
2022/11/16 03:22:21;;;;;;;;;;;8.80;99.90;;;;;;5002239;28;19935;-75
2022/11/16 03:24:49;;;;;;;;;;;8.90;99.90;;;;;;4993095;28;20114;-76
2022/11/16 03:27:22;;;;;;;;;;;8.80;99.90;;;;;;4993477;28;19932;-76
2022/11/16 03:29:55;;;;;;;;;;;8.90;99.90;;;;;;5005892;28;20327;-74
2022/11/16 03:32:28;;;;;;;;;;;8.90;99.90;;;;;;4988840;28;20028;-73
2022/11/16 03:34:59;;;;;;;;;;;8.80;99.90;;;;;;5006181;28;19933;-74
2022/11/16 03:37:28;;;;;;;;;;;8.80;99.90;;;;;;5007880;28;20639;-75
2022/11/16 03:39:58;;;;;;;;;;;8.80;99.90;;;;;;5007515;28;20395;-74
2022/11/16 03:42:26;;;;;;;;;;;8.90;99.90;;;;;;4992654;28;19930;-75
2022/11/16 03:44:53;;;;;;;;;;;8.90;99.90;;;;;;4990508;28;20028;-75
2022/11/16 03:47:20;;;;;;;;;;;8.80;99.90;;;;;;4999951;28;19933;-75
2022/11/16 03:49:47;;;;;;;;;;;8.90;99.90;;;;;;4994067;28;19925;-74
2022/11/16 03:52:18;;;;;;;;;;;8.80;99.90;;;;;;4987591;28;19932;-76
2022/11/16 03:54:47;;;;;;;;;;;8.80;99.90;;;;;;4997027;28;19925;-75
2022/11/16 03:57:17;;;;;;;;;;;8.80;99.90;;;;;;4993391;28;20005;-75
2022/11/16 03:59:46;;;;;;;;;;;8.80;99.90;;;;;;4989412;28;20419;-74
2022/11/16 04:02:12;;;;;;;;;;;8.80;99.90;;;;;;4992885;28;19937;-74
2022/11/16 04:24:14;;;;;;;;;;;8.80;99.90;;;;;;5012748;28;19948;-76
2022/11/16 04:29:27;;;;;;;;;;;8.90;99.90;;;;;;5008337;28;21954;-75
2022/11/16 04:40:11;;;;;;;;;;;8.80;99.90;;;;;;5007057;28;19988;-74
2022/11/16 04:42:38;;;;;;;;;;;8.80;99.90;;;;;;5005261;28;19934;-74
2022/11/16 04:47:53;;;;;;;;;;;8.80;99.90;;;;;;5010590;28;19929;-74
2022/11/16 04:50:23;;;;;;;;;;;8.80;99.90;;;;;;5013373;28;19926;-75
2022/11/16 04:52:51;;;;;;;;;;;8.80;99.90;;;;;;4997460;28;19949;-73
2022/11/16 04:55:19;;;;;;;;;;;8.80;99.90;;;;;;5010373;28;20023;-75
2022/11/16 04:57:48;;;;;;;;;;;8.80;99.90;;;;;;5003860;28;20419;-74
2022/11/16 05:00:16;;;;;;;;;;;8.80;99.90;;;;;;5005006;28;19932;-75
2022/11/16 05:02:44;;;;;;;;;;;8.80;99.90;;;;;;4988373;28;19930;-74
2022/11/16 05:05:11;;;;;;;;;;;8.80;99.90;;;;;;4989682;28;19980;-75
2022/11/16 05:07:42;;;;;;;;;;;8.80;99.90;;;;;;5012202;28;19980;-76
2022/11/16 05:10:19;;;;;;;;;;;8.80;99.90;;;;;;5009078;28;19930;-74
2022/11/16 05:12:46;;;;;;;;;;;8.80;99.90;;;;;;4993652;28;19932;-74
2022/11/16 05:15:13;;;;;;;;;;;8.80;99.90;;;;;;5013870;28;22064;-75
2022/11/16 05:17:40;;;;;;;;;;;8.80;99.90;;;;;;5010846;28;19936;-76
2022/11/16 05:23:02;;;;;;;;;;;8.70;99.90;;;;;;5002559;28;19922;-74
2022/11/16 05:25:36;;;;;;;;;;;8.80;99.90;;;;;;5013599;28;19934;-76
2022/11/16 05:28:05;;;;;;;;;;;8.80;99.90;;;;;;4994431;28;20000;-73
2022/11/16 05:30:36;;;;;;;;;;;8.80;99.90;;;;;;4993540;28;20289;-73
2022/11/16 05:33:04;;;;;;;;;;;8.80;99.90;;;;;;4994101;28;20312;-74
2022/11/16 05:35:33;;;;;;;;;;;8.80;99.90;;;;;;4999007;28;20071;-75
2022/11/16 05:38:01;;;;;;;;;;;8.80;99.90;;;;;;5008370;28;19934;-74
2022/11/16 05:40:31;;;;;;;;;;;8.80;99.90;;;;;;5009029;28;19933;-77
2022/11/16 05:43:00;;;;;;;;;;;8.80;99.90;;;;;;4995263;28;19941;-78
2022/11/16 05:45:29;;;;;;;;;;;8.80;99.90;;;;;;4998946;28;20463;-76
2022/11/16 05:47:59;;;;;;;;;;;8.70;99.90;;;;;;5001788;28;20040;-75
2022/11/16 05:50:28;;;;;;;;;;;8.70;99.90;;;;;;5003681;28;20024;-76
2022/11/16 05:53:11;;;;;;;;;;;8.70;99.90;;;;;;5013390;28;21660;-76
2022/11/16 05:55:38;;;;;;;;;;;8.80;99.90;;;;;;4987525;28;19933;-74
2022/11/16 05:58:07;;;;;;;;;;;8.70;99.90;;;;;;5006122;28;19991;-74
2022/11/16 06:00:34;;;;;;;;;;;8.80;99.90;;;;;;5016384;28;19926;-76
2022/11/16 06:03:01;;;;;;;;;;;8.80;99.90;;;;;;4999506;28;19929;-75
2022/11/16 06:05:33;;;;;;;;;;;8.70;99.90;;;;;;4995204;28;19925;-72
2022/11/16 06:08:00;;;;;;;;;;;8.70;99.90;;;;;;5006444;28;19925;-72
2022/11/16 06:10:28;;;;;;;;;;;8.70;99.90;;;;;;4991522;28;19930;-73
2022/11/16 06:12:55;;;;;;;;;;;8.70;99.90;;;;;;4990934;28;19984;-74
2022/11/16 06:15:24;;;;;;;;;;;8.80;99.90;;;;;;4993268;28;19940;-74
2022/11/16 06:17:52;;;;;;;;;;;8.70;99.90;;;;;;4996670;28;20354;-73
2022/11/16 06:20:20;;;;;;;;;;;8.80;99.90;;;;;;5007164;28;19933;-73
2022/11/16 06:22:47;;;;;;;;;;;8.70;99.90;;;;;;4993584;28;19937;-77
2022/11/16 06:25:14;;;;;;;;;;;8.80;99.90;;;;;;4985519;28;19932;-73
2022/11/16 06:27:43;;;;;;;;;;;8.80;99.90;;;;;;5001221;28;20451;-73
2022/11/16 06:30:13;;;;;;;;;;;8.80;99.90;;;;;;5019247;28;20208;-74
2022/11/16 06:32:43;;;;;;;;;;;8.80;99.90;;;;;;4994124;28;19929;-73
2022/11/16 06:35:10;;;;;;;;;;;8.80;99.90;;;;;;4997786;28;20632;-73
2022/11/16 06:37:38;;;;;;;;;;;8.80;99.90;;;;;;5002671;28;20291;-73
2022/11/16 06:40:07;;;;;;;;;;;8.80;99.90;;;;;;5011229;28;20020;-72
2022/11/16 06:42:37;;;;;;;;;;;8.80;99.90;;;;;;5014130;28;19926;-73
2022/11/16 06:45:04;;;;;;;;;;;8.80;99.90;;;;;;5007324;28;19933;-72
2022/11/16 06:47:37;;;;;;;;;;;8.80;99.90;;;;;;5001369;28;19926;-73
2022/11/16 06:50:06;;;;;;;;;;;8.80;99.90;;;;;;5013611;28;20375;-72
2022/11/16 06:52:34;;;;;;;;;;;8.80;99.90;;;;;;5006533;28;20029;-73
2022/11/16 06:55:01;;;;;;;;;;;8.80;99.90;;;;;;5003351;28;19925;-73
2022/11/16 06:57:34;;;;;;;;;;;8.80;99.90;;;;;;4997670;28;19925;-72
2022/11/16 07:00:02;;;;;;;;;;;8.80;99.90;;;;;;4998859;28;19962;-73
2022/11/16 07:02:30;;;;;;;;;;;8.80;99.90;;;;;;5000104;28;20338;-74
2022/11/16 07:04:58;;;;;;;;;;;8.70;99.90;;;;;;5016837;28;22274;-73
2022/11/16 07:07:26;;;;;;;;;;;8.80;99.90;;;;;;5001144;28;20055;-73
2022/11/16 07:09:54;;;;;;;;;;;8.80;99.90;;;;;;5017841;28;19983;-73
2022/11/16 07:12:21;;;;;;;;;;;8.80;99.90;;;;;;5004238;28;19925;-73
2022/11/16 07:14:49;;;;;;;;;;;8.80;99.90;;;;;;5003062;28;19933;-72
2022/11/16 07:17:19;;;;;;;;;;;8.80;99.90;;;;;;4999359;28;20723;-73
2022/11/16 07:19:46;;;;;;;;;;;8.80;99.90;;;;;;5003138;28;19926;-73
2022/11/16 07:22:12;;;;;;;;;;;8.80;99.90;;;;;;4999907;28;20451;-73
2022/11/16 07:24:41;;;;;;;;;;;8.80;99.90;;;;;;5005178;28;19957;-74
2022/11/16 07:27:09;;;;;;;;;;;8.80;99.90;;;;;;4989461;28;20434;-72
2022/11/16 07:29:40;;;;;;;;;;;8.80;99.90;;;;;;5016406;28;19926;-72
2022/11/16 07:32:23;;;;;;;;;;;8.80;99.90;;;;;;4991440;28;20019;-72
2022/11/16 07:35:06;;;;;;;;;;;8.80;99.90;;;;;;5015433;28;20396;-72
2022/11/16 07:37:33;;;;;;;;;;;8.80;99.90;;;;;;4997325;28;19926;-72
2022/11/16 07:40:01;;;;;;;;;;;8.80;99.90;;;;;;5005189;28;19925;-71
2022/11/16 07:42:29;;;;;;;;;;;8.80;99.90;;;;;;5015213;28;19968;-72
2022/11/16 07:45:14;;;;;;;;;;;8.80;99.90;;;;;;4996508;28;19948;-72
2022/11/16 07:47:51;;;;;;;;;;;8.80;99.90;;;;;;4994676;28;19933;-71
2022/11/16 07:50:24;;;;;;;;;;;8.80;99.90;;;;;;5010474;28;20402;-72
2022/11/16 07:52:51;;;;;;;;;;;8.80;99.90;;;;;;5010269;28;19933;-71
2022/11/16 07:55:25;;;;;;;;;;;8.80;99.90;;;;;;5016056;28;19949;-72
2022/11/16 07:57:52;;;;;;;;;;;8.80;99.90;;;;;;5000687;28;20366;-72
2022/11/16 08:00:19;;;;;;;;;;;8.80;99.90;;;;;;5002528;28;19934;-72
2022/11/16 08:02:55;;;;;;;;;;;8.80;99.90;;;;;;5012992;28;19929;-72
2022/11/16 08:05:22;;;;;;;;;;;8.80;99.90;;;;;;5002181;28;20474;-72
2022/11/16 08:07:50;;;;;;;;;;;8.80;99.90;;;;;;4997765;28;19925;-72
2022/11/16 08:10:22;;;;;;;;;;;8.80;99.90;;;;;;5004190;28;20306;-72
2022/11/16 08:12:50;;;;;;;;;;;8.80;99.90;;;;;;4999405;28;19933;-72
2022/11/16 08:15:18;;;;;;;;;;;8.80;99.90;;;;;;5014513;28;20347;-72
2022/11/16 08:17:45;;;;;;;;;;;8.80;99.90;;;;;;5016616;28;19956;-72
2022/11/16 08:20:13;;;;;;;;;;;8.80;99.90;;;;;;5016343;28;19930;-71
2022/11/16 08:22:40;;;;;;;;;;;8.80;99.90;;;;;;5014982;28;20306;-71
2022/11/16 08:25:08;;;;;;;;;;;8.90;99.90;;;;;;5018002;28;19926;-71
2022/11/16 08:27:35;;;;;;;;;;;8.90;99.90;;;;;;4993350;28;19980;-72
2022/11/16 08:30:08;;;;;;;;;;;8.90;99.90;;;;;;5001441;28;19971;-71
2022/11/16 08:32:35;;;;;;;;;;;8.90;99.90;;;;;;4999377;28;19929;-72
2022/11/16 08:35:04;;;;;;;;;;;8.90;99.90;;;;;;4995721;28;19952;-71
2022/11/16 08:37:32;;;;;;;;;;;8.90;99.90;;;;;;5011454;28;19933;-72
2022/11/16 08:39:59;;;;;;;;;;;8.90;99.90;;;;;;5000931;28;19940;-73
2022/11/16 08:42:26;;;;;;;;;;;8.90;99.90;;;;;;5001100;28;19925;-72
2022/11/16 08:44:53;;;;;;;;;;;8.90;99.90;;;;;;5000099;28;19926;-72
2022/11/16 08:47:22;;;;;;;;;;;8.90;99.90;;;;;;5011961;28;20390;-72
2022/11/16 08:49:53;;;;;;;;;;;8.90;99.90;;;;;;4999300;28;20028;-71
2022/11/16 08:52:21;;;;;;;;;;;8.90;99.90;;;;;;5009849;28;19945;-72
2022/11/16 08:54:49;;;;;;;;;;;8.90;99.90;;;;;;4998418;28;19976;-71
2022/11/16 08:57:17;;;;;;;;;;;8.90;99.90;;;;;;4998212;28;20020;-72
2022/11/16 08:59:47;;;;;;;;;;;8.90;99.90;;;;;;4999472;28;19929;-72
2022/11/16 09:02:14;;;;;;;;;;;8.90;99.90;;;;;;4998720;28;19979;-72
2022/11/16 09:04:42;;;;;;;;;;;9.00;99.90;;;;;;4995832;28;19937;-72
2022/11/16 09:07:10;;;;;;;;;;;9.00;99.90;;;;;;4997107;28;20419;-71
2022/11/16 09:09:36;;;;;;;;;;;9.00;99.90;;;;;;5000141;28;20035;-72
2022/11/16 09:12:03;;;;;;;;;;;9.00;99.90;;;;;;4999825;28;20356;-72
2022/11/16 09:14:30;;;;;;;;;;;9.00;99.90;;;;;;5000787;28;20375;-72
2022/11/16 09:16:57;;;;;;;;;;;9.00;99.90;;;;;;4999885;28;19930;-72
2022/11/16 09:19:24;;;;;;;;;;;9.00;99.90;;;;;;5004660;28;20366;-72
2022/11/16 09:21:52;;;;;;;;;;;9.00;99.90;;;;;;4994206;28;19933;-71
2022/11/16 09:24:19;;;;;;;;;;;9.00;99.90;;;;;;5006366;28;19930;-71
2022/11/16 09:26:45;;;;;;;;;;;9.00;99.90;;;;;;5002990;28;19929;-72
2022/11/16 09:29:13;;;;;;;;;;;9.00;99.90;;;;;;5003705;28;20386;-71
2022/11/16 09:31:40;;;;;;;;;;;9.00;99.90;;;;;;4995533;28;19992;-72
2022/11/16 09:34:07;;;;;;;;;;;9.00;99.90;;;;;;5003442;28;19926;-71
2022/11/16 09:36:34;;;;;;;;;;;9.00;99.90;;;;;;5003228;28;20311;-72
2022/11/16 09:39:02;;;;;;;;;;;9.10;99.90;;;;;;5000668;28;20423;-71
2022/11/16 09:41:46;;;;;;;;;;;9.10;99.90;;;;;;5004708;28;19976;-72
2022/11/16 09:44:18;;;;;;;;;;;9.10;99.90;;;;;;5000653;28;20025;-72
2022/11/16 09:46:46;;;;;;;;;;;9.10;99.90;;;;;;4999893;28;19960;-72
2022/11/16 09:49:15;;;;;;;;;;;9.10;99.90;;;;;;5007480;28;19930;-72
2022/11/16 09:51:43;;;;;;;;;;;9.10;99.90;;;;;;5002099;28;20399;-72
2022/11/16 09:54:14;;;;;;;;;;;9.10;99.90;;;;;;4999069;28;19925;-72
2022/11/16 09:56:42;;;;;;;;;;;9.10;99.90;;;;;;5019264;28;19952;-72
2022/11/16 09:59:12;;;;;;;;;;;9.10;99.90;;;;;;5006707;28;19933;-71
2022/11/16 10:01:41;;;;;;;;;;;9.10;99.90;;;;;;4988861;28;20343;-71
2022/11/16 10:04:10;;;;;;;;;;;9.10;99.90;;;;;;4996400;28;19934;-74
2022/11/16 10:06:41;;;;;;;;;;;9.10;99.90;;;;;;5011531;28;19933;-74
2022/11/16 10:09:12;;;;;;;;;;;9.20;99.90;;;;;;4992148;28;19925;-73
2022/11/16 10:11:44;;;;;;;;;;;9.20;99.90;;;;;;4995626;28;20604;-73
2022/11/16 10:14:22;;;;;;;;;;;9.20;99.90;;;;;;4995004;28;19926;-73
2022/11/16 10:16:51;;;;;;;;;;;9.20;99.90;;;;;;4995698;28;19930;-73
2022/11/16 10:19:26;;;;;;;;;;;9.20;99.90;;;;;;4993266;28;19972;-74
2022/11/16 10:21:58;;;;;;;;;;;9.30;99.90;;;;;;4998722;28;19960;-73
2022/11/16 10:24:29;;;;;;;;;;;9.30;99.90;;;;;;4996624;28;20016;-74
2022/11/16 10:27:03;;;;;;;;;;;9.30;99.90;;;;;;5011086;28;19944;-73
2022/11/16 10:29:34;;;;;;;;;;;9.30;99.90;;;;;;4997638;28;20047;-78
2022/11/16 10:32:06;;;;;;;;;;;9.30;99.90;;;;;;5002939;28;20319;-73
2022/11/16 10:34:38;;;;;;;;;;;9.30;99.90;;;;;;5006363;28;19934;-75
2022/11/16 10:37:07;;;;;;;;;;;9.30;99.90;;;;;;4999478;28;19926;-77
2022/11/16 10:39:35;;;;;;;;;;;9.30;99.90;;;;;;4997002;28;19929;-75
2022/11/16 10:42:05;;;;;;;;;;;9.30;99.90;;;;;;5004631;28;20368;-79
2022/11/16 10:44:35;;;;;;;;;;;9.40;99.90;;;;;;5018105;28;19930;-77
2022/11/16 10:47:03;;;;;;;;;;;9.40;99.90;;;;;;5000561;28;20065;-77
2022/11/16 10:49:35;;;;;;;;;;;9.40;99.90;;;;;;5003944;28;19929;-73
2022/11/16 10:52:02;;;;;;;;;;;9.40;99.90;;;;;;5015173;28;20015;-76
2022/11/16 10:54:29;;;;;;;;;;;9.40;99.90;;;;;;5003393;28;19941;-79
2022/11/16 10:57:02;;;;;;;;;;;9.40;99.90;;;;;;5000343;28;19929;-78
2022/11/16 10:59:39;;;;;;;;;;;9.40;99.90;;;;;;5006818;28;19955;-76
2022/11/16 11:02:29;;;;;;;;;;;9.40;99.90;;;;;;5017550;28;20415;-78
2022/11/16 11:05:14;;;;;;;;;;;9.40;99.90;;;;;;5002690;28;20144;-75
2022/11/16 11:07:44;;;;;;;;;;;9.50;99.90;;;;;;5004079;28;19973;-77
2022/11/16 11:10:22;;;;;;;;;;;9.50;99.90;;;;;;5000994;28;19933;-77
2022/11/16 11:13:00;;;;;;;;;;;9.50;99.90;;;;;;5001922;28;19926;-77
2022/11/16 11:15:29;;;;;;;;;;;9.50;99.90;;;;;;5001644;28;19925;-78
2022/11/16 11:18:14;;;;;;;;;;;9.50;99.90;;;;;;4996515;28;20064;-77
2022/11/16 11:20:42;;;;;;;;;;;9.50;99.90;;;;;;5012284;28;19929;-78
2022/11/16 11:23:14;;;;;;;;;;;9.50;99.90;;;;;;5018477;28;20415;-78
2022/11/16 11:25:48;;;;;;;;;;;9.50;99.90;;;;;;5004385;28;19966;-73
2022/11/16 11:28:16;;;;;;;;;;;9.60;99.90;;;;;;5020916;28;20396;-73
2022/11/16 11:30:52;;;;;;;;;;;9.60;99.90;;;;;;4996908;28;20738;-73
2022/11/16 11:33:20;;;;;;;;;;;9.60;99.90;;;;;;4993411;28;19933;-74
2022/11/16 11:35:56;;;;;;;;;;;9.60;99.90;;;;;;4993163;28;20375;-74
2022/11/16 11:38:22;;;;;;;;;;;9.60;99.90;;;;;;4992664;28;20044;-74
2022/11/16 11:40:56;;;;;;;;;;;9.70;99.90;;;;;;4995589;28;20029;-73
2022/11/16 11:43:24;;;;;;;;;;;9.60;99.90;;;;;;5009159;28;20395;-73
2022/11/16 11:45:55;;;;;;;;;;;9.60;99.90;;;;;;4994858;28;20390;-74
2022/11/16 11:48:29;;;;;;;;;;;9.70;99.90;;;;;;4986268;28;20381;-73
2022/11/16 11:50:58;;;;;;;;;;;9.70;99.90;;;;;;4996762;28;19936;-73
2022/11/16 11:53:35;;;;;;;;;;;9.70;99.90;;;;;;4997366;28;20322;-72
2022/11/16 11:56:02;;;;;;;;;;;9.70;99.90;;;;;;5000395;28;19929;-75
2022/11/16 11:58:31;;;;;;;;;;;9.70;99.90;;;;;;5013892;28;19929;-75
2022/11/16 12:01:08;;;;;;;;;;;9.70;99.90;;;;;;4995247;28;19929;-75
2022/11/16 12:03:57;;;;;;;;;;;9.80;99.90;;;;;;4995181;28;19939;-75
2022/11/16 12:06:29;;;;;;;;;;;9.80;99.90;;;;;;4998097;28;19929;-75
2022/11/16 12:09:14;;;;;;;;;;;9.80;99.90;;;;;;5000052;28;19999;-75
2022/11/16 12:11:49;;;;;;;;;;;9.80;99.90;;;;;;4998383;28;19926;-74
2022/11/16 12:14:22;;;;;;;;;;;9.80;99.90;;;;;;4995734;28;19929;-75
2022/11/16 12:16:57;;;;;;;;;;;9.80;99.90;;;;;;5003313;28;19929;-75
2022/11/16 12:19:37;;;;;;;;;;;9.90;99.90;;;;;;5004435;28;20027;-75
2022/11/16 12:22:08;;;;;;;;;;;9.90;99.90;;;;;;5001782;28;20032;-76
2022/11/16 12:24:39;;;;;;;;;;;9.90;99.90;;;;;;4994412;28;20211;-75
2022/11/16 12:27:13;;;;;;;;;;;9.90;99.90;;;;;;5000254;28;20016;-75
2022/11/16 12:29:43;;;;;;;;;;;9.90;99.90;;;;;;4996973;28;19955;-76
2022/11/16 12:32:34;;;;;;;;;;;9.90;99.90;;;;;;4993760;28;20108;-75
2022/11/16 12:35:11;;;;;;;;;;;9.90;99.90;;;;;;4987263;28;20037;-76
2022/11/16 12:37:45;;;;;;;;;;;9.90;99.90;;;;;;4999628;28;20430;-75
2022/11/16 12:40:18;;;;;;;;;;;10.00;99.90;;;;;;5011705;28;19929;-76
2022/11/16 12:42:48;;;;;;;;;;;10.00;99.90;;;;;;4993580;28;19945;-76
2022/11/16 12:45:23;;;;;;;;;;;10.00;99.90;;;;;;4998632;28;20008;-75
2022/11/16 12:48:02;;;;;;;;;;;10.00;99.90;;;;;;4993866;28;19957;-75
2022/11/16 12:50:36;;;;;;;;;;;10.00;99.90;;;;;;4993115;28;20429;-76
2022/11/16 12:53:16;;;;;;;;;;;10.00;99.90;;;;;;4995109;28;20063;-75
2022/11/16 12:55:47;;;;;;;;;;;10.00;99.90;;;;;;4995460;28;20918;-75
2022/11/16 12:58:19;;;;;;;;;;;10.00;99.90;;;;;;5001145;28;19925;-76
2022/11/16 13:00:52;;;;;;;;;;;10.10;99.90;;;;;;5012878;28;19980;-74
2022/11/16 13:03:23;;;;;;;;;;;10.10;99.90;;;;;;4998240;28;20020;-77
2022/11/16 13:05:54;;;;;;;;;;;10.20;99.90;;;;;;5003521;28;19925;-74
2022/11/16 13:08:31;;;;;;;;;;;10.10;99.90;;;;;;4996144;28;20373;-74
2022/11/16 13:11:01;;;;;;;;;;;10.20;99.90;;;;;;4999538;28;19949;-75
2022/11/16 13:13:28;;;;;;;;;;;10.20;99.90;;;;;;4999103;28;19933;-74
2022/11/16 13:15:56;;;;;;;;;;;10.20;99.90;;;;;;4994933;28;19933;-74
2022/11/16 13:18:23;;;;;;;;;;;10.10;99.90;;;;;;4993522;28;19926;-75
2022/11/16 13:20:53;;;;;;;;;;;10.20;99.90;;;;;;4992599;28;19925;-75
2022/11/16 13:23:25;;;;;;;;;;;10.20;99.90;;;;;;4988305;28;20466;-74
2022/11/16 13:25:56;;;;;;;;;;;10.20;99.90;;;;;;4993760;28;19925;-74
2022/11/16 13:28:26;;;;;;;;;;;10.20;99.90;;;;;;4993716;28;19930;-75
2022/11/16 13:31:00;;;;;;;;;;;10.20;99.90;;;;;;4993160;28;19960;-74
2022/11/16 13:33:30;;;;;;;;;;;10.30;99.90;;;;;;4996054;28;20423;-75
2022/11/16 13:35:56;;;;;;;;;;;10.20;99.90;;;;;;5000646;28;19941;-75
2022/11/16 13:38:42;;;;;;;;;;;10.30;99.90;;;;;;5001017;28;19929;-74
2022/11/16 13:41:23;;;;;;;;;;;10.30;99.90;;;;;;5011588;28;19957;-75
2022/11/16 13:43:52;;;;;;;;;;;10.30;99.90;;;;;;4997280;28;19925;-75
2022/11/16 13:46:18;;;;;;;;;;;10.30;99.90;;;;;;5013342;28;19929;-75
2022/11/16 13:48:45;;;;;;;;;;;10.30;99.90;;;;;;4993123;28;19976;-75
2022/11/16 13:51:17;;;;;;;;;;;10.30;99.90;;;;;;5011202;28;20064;-74
2022/11/16 13:53:47;;;;;;;;;;;10.30;99.90;;;;;;4997725;28;19934;-74
2022/11/16 13:56:14;;;;;;;;;;;10.40;99.90;;;;;;4991135;28;19933;-74
2022/11/16 13:58:44;;;;;;;;;;;10.40;99.90;;;;;;4986278;28;19941;-74
2022/11/16 14:01:14;;;;;;;;;;;10.40;99.90;;;;;;5003739;28;19988;-74
2022/11/16 14:03:41;;;;;;;;;;;10.40;99.90;;;;;;4982417;28;19926;-73
2022/11/16 14:06:26;;;;;;;;;;;10.40;99.90;;;;;;4987461;28;19944;-74
2022/11/16 14:08:53;;;;;;;;;;;10.40;99.90;;;;;;4993814;28;19979;-73
2022/11/16 14:11:27;;;;;;;;;;;10.40;99.90;;;;;;4997318;28;19933;-73
2022/11/16 14:13:54;;;;;;;;;;;10.40;99.90;;;;;;4997208;28;19925;-74
2022/11/16 14:16:54;;;;;;;;;;;10.50;99.90;;;;;;4998598;28;19979;-73
2022/11/16 14:19:39;;;;;;;;;;;10.50;99.90;;;;;;4998930;28;19941;-73
2022/11/16 14:22:09;;;;;;;;;;;10.50;99.90;;;;;;5001490;28;19937;-74
2022/11/16 14:24:39;;;;;;;;;;;10.50;99.90;;;;;;4990575;28;19976;-73
2022/11/16 14:27:14;;;;;;;;;;;10.50;99.90;;;;;;4999378;28;19933;-73
2022/11/16 14:29:47;;;;;;;;;;;10.50;99.90;;;;;;4991435;28;20142;-74
2022/11/16 14:32:19;;;;;;;;;;;10.50;99.90;;;;;;5002929;28;20362;-73
2022/11/16 14:34:48;;;;;;;;;;;10.50;99.90;;;;;;4997408;28;19926;-73
2022/11/16 14:37:28;;;;;;;;;;;10.50;99.90;;;;;;4997901;28;19933;-73
2022/11/16 14:40:01;;;;;;;;;;;10.50;99.90;;;;;;4997755;28;20330;-73
2022/11/16 14:42:29;;;;;;;;;;;10.50;99.90;;;;;;4998786;28;19962;-74
2022/11/16 14:44:59;;;;;;;;;;;10.50;99.90;;;;;;5013730;28;20012;-73
2022/11/16 14:47:27;;;;;;;;;;;10.50;99.90;;;;;;5001513;28;20015;-74
2022/11/16 14:49:54;;;;;;;;;;;10.50;99.90;;;;;;4995748;28;19931;-73
2022/11/16 14:52:27;;;;;;;;;;;10.50;99.90;;;;;;5003390;28;19933;-74
2022/11/16 14:54:56;;;;;;;;;;;10.50;99.90;;;;;;4998084;28;20165;-73
2022/11/16 14:57:23;;;;;;;;;;;10.50;99.90;;;;;;5001277;28;19926;-74
2022/11/16 15:00:06;;;;;;;;;;;10.50;99.90;;;;;;4996418;28;20331;-74
2022/11/16 15:02:34;;;;;;;;;;;10.50;99.90;;;;;;4998028;28;19964;-74
2022/11/16 15:05:02;;;;;;;;;;;10.50;99.90;;;;;;4997281;28;21664;-74
2022/11/16 15:07:31;;;;;;;;;;;10.50;99.90;;;;;;4998562;28;20012;-73
2022/11/16 15:09:59;;;;;;;;;;;10.50;99.90;;;;;;5000773;28;20356;-73
2022/11/16 15:12:43;;;;;;;;;;;10.50;99.90;;;;;;5006428;28;20384;-73
2022/11/16 15:15:13;;;;;;;;;;;10.50;99.90;;;;;;4993741;28;19929;-73
2022/11/16 15:17:42;;;;;;;;;;;10.50;99.90;;;;;;4998046;28;20390;-74
2022/11/16 15:20:15;;;;;;;;;;;10.50;99.90;;;;;;4997498;28;19929;-74
2022/11/16 15:22:45;;;;;;;;;;;10.50;99.90;;;;;;4998520;28;19933;-74
2022/11/16 15:25:23;;;;;;;;;;;10.50;99.90;;;;;;4996324;28;19940;-74
2022/11/16 15:27:50;;;;;;;;;;;10.50;99.90;;;;;;4998172;28;19929;-74